Terminal Aerodrome Forecast
Issued by NWS

Home | Current Version | Previous Version | Text Only | Print | Product List | Glossary On
Versions: 1 2 3 4 5 6 7 8 9 10 11 12 13 14 15 16 17 18 19 20 21 22 23 24
000
FTUS41 KGYX 251123
TAFAUG
TAF
KAUG 251123Z 2512/2612 VRB03KT 3/4SM BR VV002
      TEMPO 2512/2514 1 1/2SM BR OVC003
     FM251400 23006KT P6SM SCT060
     FM260100 30004KT P6SM SKC=

USA.gov is the U.S. government's official web portal to all federal, state and local government web resources and services.